Time;durP1;ratioP1;P1;durP2;ratioP2;P2;SDS_P1;SDS_P2;PMS_P1;PMS_P2;Temp;Humidity;BMP_temperature;BMP_pressure;BME280_temperature;BME280_humidity;BME280_pressure;Samples;Min_cycle;Max_cycle;Signal;HPM_P1;HPM_P2
2021/12/18 00:00:39;;;;;;;24.13;14.35;;;;;;;;;;5018237;28;20032;-70
2021/12/18 00:03:05;;;;;;;30.05;16.10;;;;;;;;;;5028600;28;20544;-70
2021/12/18 00:05:30;;;;;;;28.00;15.13;;;;;;;;;;5010126;28;20030;-68
2021/12/18 00:07:56;;;;;;;29.55;15.30;;;;;;;;;;5029472;28;20033;-70
2021/12/18 00:10:23;;;;;;;29.33;16.00;;;;;;;;;;5025608;28;20025;-69
2021/12/18 00:12:49;;;;;;;26.92;14.73;;;;;;;;;;5030783;28;20056;-70
2021/12/18 00:15:15;;;;;;;27.02;14.80;;;;;;;;;;5013460;28;20037;-70
2021/12/18 00:17:41;;;;;;;30.23;15.45;;;;;;;;;;5031006;28;20060;-70
2021/12/18 00:20:06;;;;;;;25.60;15.20;;;;;;;;;;5016023;28;20029;-70
2021/12/18 00:22:32;;;;;;;26.17;15.02;;;;;;;;;;5028726;28;20029;-69
2021/12/18 00:24:57;;;;;;;25.98;15.30;;;;;;;;;;5030925;28;20093;-69
2021/12/18 00:27:22;;;;;;;25.98;14.65;;;;;;;;;;5012424;28;20018;-70
2021/12/18 00:29:47;;;;;;;23.45;13.77;;;;;;;;;;5032192;28;20025;-69
2021/12/18 00:32:13;;;;;;;32.00;15.95;;;;;;;;;;5025554;28;20022;-70
2021/12/18 00:34:39;;;;;;;26.75;15.18;;;;;;;;;;5012182;28;20421;-70
2021/12/18 00:37:04;;;;;;;31.45;15.85;;;;;;;;;;5029459;28;20040;-69
2021/12/18 00:39:32;;;;;;;30.05;14.35;;;;;;;;;;5026506;28;20398;-69
2021/12/18 00:44:22;;;;;;;32.22;15.32;;;;;;;;;;5011455;28;20037;-69
2021/12/18 00:46:47;;;;;;;26.13;14.10;;;;;;;;;;5032119;28;20017;-70
2021/12/18 00:49:14;;;;;;;29.88;15.98;;;;;;;;;;5029620;28;20014;-68
2021/12/18 00:51:39;;;;;;;29.27;14.57;;;;;;;;;;5010051;28;20386;-69
2021/12/18 00:54:05;;;;;;;27.00;14.95;;;;;;;;;;5036172;28;20489;-69
2021/12/18 00:56:30;;;;;;;30.58;14.88;;;;;;;;;;5023678;28;20110;-69
2021/12/18 00:58:56;;;;;;;27.10;14.43;;;;;;;;;;5043004;28;20033;-70
2021/12/18 01:01:22;;;;;;;28.60;14.93;;;;;;;;;;5037368;28;20039;-69
2021/12/18 01:03:48;;;;;;;30.77;16.25;;;;;;;;;;5017699;28;20013;-69
2021/12/18 01:06:14;;;;;;;27.30;14.25;;;;;;;;;;5037020;28;20461;-69
2021/12/18 01:08:40;;;;;;;26.67;14.27;;;;;;;;;;5031208;28;20052;-70
2021/12/18 01:11:50;;;;;;;25.95;13.82;;;;;;;;;;5026861;28;20112;-69
2021/12/18 01:16:46;;;;;;;24.63;13.77;;;;;;;;;;5033433;28;19931;-69
2021/12/18 01:24:39;;;;;;;23.67;14.13;;;;;;;;;;5042390;28;20040;-69
2021/12/18 01:27:04;;;;;;;26.77;13.95;;;;;;;;;;5037492;28;20470;-69
2021/12/18 01:29:29;;;;;;;26.38;14.40;;;;;;;;;;5018345;28;20022;-69
2021/12/18 01:31:54;;;;;;;25.85;13.82;;;;;;;;;;5034991;28;20037;-68
2021/12/18 01:34:19;;;;;;;24.50;14.43;;;;;;;;;;5019487;28;20059;-69
2021/12/18 01:36:45;;;;;;;26.98;14.82;;;;;;;;;;5017344;28;20034;-68
2021/12/18 01:39:10;;;;;;;29.42;14.73;;;;;;;;;;5033780;28;20068;-69
2021/12/18 01:41:53;;;;;;;30.00;15.02;;;;;;;;;;5031956;28;20789;-69
2021/12/18 01:52:32;;;;;;;29.33;16.00;;;;;;;;;;5036557;28;20098;-69
2021/12/18 01:54:57;;;;;;;28.88;15.27;;;;;;;;;;5032006;28;20113;-67
2021/12/18 01:57:23;;;;;;;34.72;17.55;;;;;;;;;;5015081;28;20596;-68
2021/12/18 01:59:48;;;;;;;33.53;15.45;;;;;;;;;;5051828;28;20024;-68
2021/12/18 02:02:14;;;;;;;31.98;17.40;;;;;;;;;;5020709;28;20523;-68
2021/12/18 02:04:40;;;;;;;33.55;17.08;;;;;;;;;;5032143;28;20029;-68
2021/12/18 02:07:07;;;;;;;31.15;16.65;;;;;;;;;;5015481;28;20485;-68
2021/12/18 02:10:18;;;;;;;33.35;16.92;;;;;;;;;;5010688;28;20018;-68
2021/12/18 02:12:25;;;;;;;35.72;17.38;;;;;;;;;;5024633;28;20550;-69
2021/12/18 02:20:55;;;;;;;32.08;15.85;;;;;;;;;;5026148;28;20553;-68
2021/12/18 02:23:01;;;;;;;27.25;15.13;;;;;;;;;;5021275;28;20098;-69
2021/12/18 02:25:30;;;;;;;29.17;15.50;;;;;;;;;;5014244;28;20116;-69
2021/12/18 02:27:55;;;;;;;27.42;15.43;;;;;;;;;;5032969;28;20059;-69
2021/12/18 02:30:21;;;;;;;25.27;14.30;;;;;;;;;;5034191;28;20026;-68
2021/12/18 02:32:48;;;;;;;26.30;14.60;;;;;;;;;;5014569;28;20061;-68
2021/12/18 02:35:28;;;;;;;24.45;13.10;;;;;;;;;;4998484;28;20037;-68
2021/12/18 02:38:07;;;;;;;26.52;12.77;;;;;;;;;;5029047;28;20452;-68
2021/12/18 02:40:54;;;;;;;23.88;13.15;;;;;;;;;;5026730;28;20473;-68
2021/12/18 02:43:22;;;;;;;19.50;11.38;;;;;;;;;;5035115;28;20029;-68
2021/12/18 02:45:47;;;;;;;20.38;11.18;;;;;;;;;;5032321;28;20021;-68
2021/12/18 02:48:12;;;;;;;17.50;10.80;;;;;;;;;;5027835;28;20037;-68
2021/12/18 02:50:38;;;;;;;19.40;10.73;;;;;;;;;;5014577;28;20040;-68
2021/12/18 02:53:04;;;;;;;16.35;10.05;;;;;;;;;;5014604;28;20021;-69
2021/12/18 02:55:29;;;;;;;17.48;10.70;;;;;;;;;;5012257;28;20041;-69
2021/12/18 02:57:54;;;;;;;17.85;11.07;;;;;;;;;;5032583;28;20037;-69
2021/12/18 03:00:22;;;;;;;19.48;11.32;;;;;;;;;;5029778;28;20029;-69
2021/12/18 03:02:47;;;;;;;20.73;11.50;;;;;;;;;;5001992;28;20044;-69
2021/12/18 03:05:20;;;;;;;21.33;12.52;;;;;;;;;;5009552;28;20061;-69
2021/12/18 03:07:46;;;;;;;21.73;11.35;;;;;;;;;;5012770;28;20025;-69
2021/12/18 03:24:20;;;;;;;20.13;11.27;;;;;;;;;;5032167;28;20455;-69
2021/12/18 03:26:03;;;;;;;23.90;12.45;;;;;;;;;;5003732;28;20033;-69
2021/12/18 03:28:29;;;;;;;22.95;11.85;;;;;;;;;;5029272;28;20021;-69
2021/12/18 03:30:55;;;;;;;20.45;12.95;;;;;;;;;;5031373;28;20036;-69
2021/12/18 03:33:20;;;;;;;21.52;12.18;;;;;;;;;;5031444;28;20193;-69
2021/12/18 03:35:46;;;;;;;20.80;12.13;;;;;;;;;;5030777;28;20033;-69
2021/12/18 03:38:11;;;;;;;23.05;13.13;;;;;;;;;;5028415;28;20707;-69
2021/12/18 03:40:36;;;;;;;20.63;12.07;;;;;;;;;;5019994;28;20129;-69
2021/12/18 03:43:02;;;;;;;21.50;11.73;;;;;;;;;;5016201;28;20126;-69
2021/12/18 03:45:27;;;;;;;22.85;11.95;;;;;;;;;;5023789;28;20032;-69
2021/12/18 03:47:52;;;;;;;20.67;11.88;;;;;;;;;;5031166;28;20071;-69
2021/12/18 03:50:18;;;;;;;21.90;12.45;;;;;;;;;;5031228;28;20445;-69
2021/12/18 03:52:43;;;;;;;20.65;11.57;;;;;;;;;;5031385;28;20496;-69
2021/12/18 03:55:09;;;;;;;18.77;10.95;;;;;;;;;;5030381;28;20025;-69
2021/12/18 03:57:34;;;;;;;19.85;11.25;;;;;;;;;;5003943;28;20545;-69
2021/12/18 03:59:59;;;;;;;21.25;12.48;;;;;;;;;;4996240;28;20041;-69
2021/12/18 04:02:25;;;;;;;21.40;12.18;;;;;;;;;;5011561;28;20044;-69
2021/12/18 04:04:50;;;;;;;21.15;12.50;;;;;;;;;;5024328;28;20065;-69
2021/12/18 04:07:15;;;;;;;18.02;11.50;;;;;;;;;;5008474;28;20026;-69
2021/12/18 04:09:41;;;;;;;22.20;12.07;;;;;;;;;;5022935;28;20072;-69
2021/12/18 04:12:07;;;;;;;20.67;11.95;;;;;;;;;;5032325;28;20116;-69
2021/12/18 04:14:32;;;;;;;18.60;11.23;;;;;;;;;;5040699;28;20116;-69
2021/12/18 04:16:57;;;;;;;22.35;12.25;;;;;;;;;;5036148;28;20075;-69
2021/12/18 04:19:22;;;;;;;18.70;11.80;;;;;;;;;;5013904;28;20444;-69
2021/12/18 04:21:48;;;;;;;18.08;11.02;;;;;;;;;;5030502;28;20116;-69
2021/12/18 04:24:13;;;;;;;19.20;11.40;;;;;;;;;;5031242;28;20392;-69
2021/12/18 04:26:38;;;;;;;20.67;11.75;;;;;;;;;;5013393;28;20124;-68
2021/12/18 04:29:08;;;;;;;17.20;11.30;;;;;;;;;;5014014;28;20061;-69
2021/12/18 04:31:34;;;;;;;20.08;12.02;;;;;;;;;;5030038;28;20104;-69
2021/12/18 04:33:59;;;;;;;19.75;11.40;;;;;;;;;;5029436;28;20025;-69
2021/12/18 04:36:24;;;;;;;15.73;10.85;;;;;;;;;;5014131;28;20159;-69
2021/12/18 04:38:50;;;;;;;17.35;11.32;;;;;;;;;;5009645;28;20056;-69
2021/12/18 04:41:22;;;;;;;18.02;10.95;;;;;;;;;;5027322;28;20528;-68
2021/12/18 04:43:48;;;;;;;16.02;9.93;;;;;;;;;;5032197;28;20029;-68
2021/12/18 04:46:13;;;;;;;18.15;11.38;;;;;;;;;;5030347;28;20025;-68
2021/12/18 04:48:38;;;;;;;19.77;11.73;;;;;;;;;;5025588;28;20033;-69
2021/12/18 04:51:03;;;;;;;18.85;11.85;;;;;;;;;;5031808;28;20108;-69
2021/12/18 04:53:29;;;;;;;16.73;9.75;;;;;;;;;;4995685;28;20042;-69
2021/12/18 04:55:54;;;;;;;19.65;11.40;;;;;;;;;;5030929;28;20087;-70
2021/12/18 04:58:19;;;;;;;18.38;11.02;;;;;;;;;;5010089;28;20033;-69
2021/12/18 05:00:47;;;;;;;21.33;12.80;;;;;;;;;;5010821;28;20026;-69
2021/12/18 05:03:14;;;;;;;19.45;11.95;;;;;;;;;;5026936;28;20079;-68
2021/12/18 05:05:39;;;;;;;18.65;11.52;;;;;;;;;;5026979;28;20036;-69
2021/12/18 05:08:05;;;;;;;20.75;12.00;;;;;;;;;;5028392;28;20029;-68
2021/12/18 05:10:31;;;;;;;19.33;11.15;;;;;;;;;;5034827;28;20070;-70
2021/12/18 05:12:56;;;;;;;20.80;12.32;;;;;;;;;;5037906;28;20033;-70
2021/12/18 05:15:22;;;;;;;23.08;13.35;;;;;;;;;;5010895;28;20040;-68
2021/12/18 05:17:47;;;;;;;17.10;11.32;;;;;;;;;;5020573;28;20025;-69
2021/12/18 05:20:13;;;;;;;19.80;11.15;;;;;;;;;;5027886;28;20946;-69
2021/12/18 05:22:38;;;;;;;18.77;11.18;;;;;;;;;;5019587;28;20022;-69
2021/12/18 05:25:04;;;;;;;19.48;11.45;;;;;;;;;;5002272;28;20023;-69
2021/12/18 05:27:29;;;;;;;22.23;11.93;;;;;;;;;;5013981;28;20497;-69
2021/12/18 05:29:54;;;;;;;19.92;11.20;;;;;;;;;;5029128;28;20022;-69
2021/12/18 05:32:19;;;;;;;17.98;10.85;;;;;;;;;;5030233;28;20029;-68
2021/12/18 05:34:45;;;;;;;20.10;12.02;;;;;;;;;;5033518;28;20405;-69
2021/12/18 05:37:31;;;;;;;19.48;11.68;;;;;;;;;;5012607;28;20051;-69
2021/12/18 05:39:56;;;;;;;21.52;12.68;;;;;;;;;;5014561;28;20041;-68
2021/12/18 05:42:21;;;;;;;18.27;11.55;;;;;;;;;;5020239;28;20028;-69
2021/12/18 05:44:47;;;;;;;20.77;11.52;;;;;;;;;;5030131;28;20171;-69
2021/12/18 05:47:12;;;;;;;18.88;11.00;;;;;;;;;;5031767;28;20108;-69
2021/12/18 05:49:37;;;;;;;20.30;11.07;;;;;;;;;;5012113;28;20028;-69
2021/12/18 05:52:04;;;;;;;16.95;11.52;;;;;;;;;;5009498;28;20091;-69
2021/12/18 05:54:34;;;;;;;18.23;11.07;;;;;;;;;;5025269;28;20057;-69
2021/12/18 05:56:59;;;;;;;17.15;10.98;;;;;;;;;;5024488;28;20033;-69
2021/12/18 05:59:24;;;;;;;19.85;11.20;;;;;;;;;;5009731;28;20492;-69
2021/12/18 06:01:50;;;;;;;17.85;10.30;;;;;;;;;;5026492;28;20025;-69
2021/12/18 06:04:15;;;;;;;19.25;11.13;;;;;;;;;;5030827;28;20021;-69
2021/12/18 06:06:41;;;;;;;19.92;12.40;;;;;;;;;;5034710;28;20036;-69
2021/12/18 06:09:06;;;;;;;20.67;12.32;;;;;;;;;;5028014;28;20113;-69
2021/12/18 06:11:32;;;;;;;22.30;12.50;;;;;;;;;;5033706;28;20025;-70
2021/12/18 06:13:57;;;;;;;22.00;12.68;;;;;;;;;;5033932;28;20501;-69
2021/12/18 06:16:23;;;;;;;24.23;13.10;;;;;;;;;;5031379;28;20026;-70
2021/12/18 06:18:50;;;;;;;19.83;12.15;;;;;;;;;;5040920;28;20025;-69
2021/12/18 06:21:16;;;;;;;25.35;13.27;;;;;;;;;;5034008;28;20041;-70
2021/12/18 06:23:42;;;;;;;24.20;13.50;;;;;;;;;;5016573;28;20030;-70
2021/12/18 06:26:08;;;;;;;22.88;13.27;;;;;;;;;;5033187;28;20032;-70
2021/12/18 06:28:33;;;;;;;22.67;12.60;;;;;;;;;;5012469;28;20396;-70
2021/12/18 06:30:59;;;;;;;23.45;11.88;;;;;;;;;;5028845;28;20025;-70
2021/12/18 06:33:24;;;;;;;19.65;11.70;;;;;;;;;;5032648;28;20572;-70
2021/12/18 06:35:49;;;;;;;17.73;9.65;;;;;;;;;;5033854;28;20502;-67
2021/12/18 06:38:15;;;;;;;13.88;8.55;;;;;;;;;;5008057;28;20053;-69
2021/12/18 06:40:41;;;;;;;12.65;7.95;;;;;;;;;;5030149;28;20053;-69
2021/12/18 06:43:06;;;;;;;13.60;8.63;;;;;;;;;;5008831;28;20125;-69
2021/12/18 06:45:32;;;;;;;14.30;8.77;;;;;;;;;;5015820;28;20036;-69
2021/12/18 06:47:57;;;;;;;11.30;6.82;;;;;;;;;;5032770;28;20601;-69
2021/12/18 06:50:22;;;;;;;9.23;5.70;;;;;;;;;;5033453;28;20053;-69
2021/12/18 06:52:47;;;;;;;9.23;5.93;;;;;;;;;;5015097;28;20112;-69
2021/12/18 06:55:13;;;;;;;12.23;7.03;;;;;;;;;;4998749;28;20033;-69
2021/12/18 06:57:38;;;;;;;10.45;6.53;;;;;;;;;;5015364;28;20018;-69
2021/12/18 07:00:08;;;;;;;10.85;6.78;;;;;;;;;;5033272;28;20022;-69
2021/12/18 07:02:33;;;;;;;8.35;5.60;;;;;;;;;;5014903;28;20021;-69
2021/12/18 07:04:58;;;;;;;11.25;7.50;;;;;;;;;;5032060;28;20029;-69
2021/12/18 07:07:23;;;;;;;15.80;9.48;;;;;;;;;;5032650;28;20064;-69
2021/12/18 07:09:49;;;;;;;18.80;11.23;;;;;;;;;;5026019;28;20026;-69
2021/12/18 07:12:14;;;;;;;18.67;12.00;;;;;;;;;;5014790;28;20044;-69
2021/12/18 07:14:39;;;;;;;21.70;13.10;;;;;;;;;;5031669;28;20044;-69
2021/12/18 07:17:05;;;;;;;20.40;13.15;;;;;;;;;;5030461;28;20083;-69
2021/12/18 07:19:30;;;;;;;23.40;13.75;;;;;;;;;;5014758;28;20044;-69
2021/12/18 07:21:55;;;;;;;25.13;13.50;;;;;;;;;;5032061;28;20039;-69
2021/12/18 07:24:20;;;;;;;24.60;13.63;;;;;;;;;;5032697;28;20026;-68
2021/12/18 07:26:46;;;;;;;25.13;14.43;;;;;;;;;;5032794;28;20053;-69
2021/12/18 07:29:11;;;;;;;22.63;13.95;;;;;;;;;;5015110;28;20017;-69
2021/12/18 07:31:36;;;;;;;23.50;14.02;;;;;;;;;;5012000;28;20466;-69
2021/12/18 07:34:01;;;;;;;28.65;15.52;;;;;;;;;;5014209;28;20044;-69
2021/12/18 07:36:27;;;;;;;25.23;14.60;;;;;;;;;;5032288;28;20018;-69
2021/12/18 07:38:52;;;;;;;23.30;13.80;;;;;;;;;;5010200;28;20053;-70
2021/12/18 07:41:17;;;;;;;27.60;14.68;;;;;;;;;;5029527;28;20044;-72
2021/12/18 07:43:42;;;;;;;24.92;14.77;;;;;;;;;;5013690;28;20064;-69
2021/12/18 07:46:08;;;;;;;25.23;15.02;;;;;;;;;;5032123;28;20030;-69
2021/12/18 07:48:33;;;;;;;24.90;13.32;;;;;;;;;;5030320;28;20037;-68
2021/12/18 07:50:58;;;;;;;20.90;12.45;;;;;;;;;;5014231;28;20039;-68
2021/12/18 07:53:23;;;;;;;24.52;13.70;;;;;;;;;;5031859;28;20025;-68
2021/12/18 07:55:49;;;;;;;22.63;12.73;;;;;;;;;;5031954;28;20027;-68
2021/12/18 07:58:14;;;;;;;21.00;13.45;;;;;;;;;;5014149;28;20025;-68
2021/12/18 08:00:39;;;;;;;23.00;13.38;;;;;;;;;;5032332;28;20052;-70
2021/12/18 08:03:04;;;;;;;21.20;13.05;;;;;;;;;;5031517;28;20403;-69
2021/12/18 08:05:29;;;;;;;18.33;11.90;;;;;;;;;;5031854;28;20017;-71
2021/12/18 08:07:55;;;;;;;21.17;12.68;;;;;;;;;;5012577;28;20048;-70
2021/12/18 08:10:20;;;;;;;22.80;13.38;;;;;;;;;;5006019;28;20036;-73
2021/12/18 08:12:45;;;;;;;23.73;13.25;;;;;;;;;;5014013;28;21285;-71
2021/12/18 08:15:10;;;;;;;18.40;11.60;;;;;;;;;;5014452;28;20108;-71
2021/12/18 08:17:36;;;;;;;18.35;12.15;;;;;;;;;;5031109;28;20064;-71
2021/12/18 08:20:02;;;;;;;19.63;11.57;;;;;;;;;;5031847;28;20039;-73
2021/12/18 08:22:27;;;;;;;19.13;12.00;;;;;;;;;;5013779;28;20116;-73
2021/12/18 08:24:53;;;;;;;17.30;11.05;;;;;;;;;;5031147;28;20104;-73
2021/12/18 08:27:18;;;;;;;20.23;12.57;;;;;;;;;;5016204;28;20462;-71
2021/12/18 08:29:43;;;;;;;16.52;10.18;;;;;;;;;;5013972;28;20029;-73
2021/12/18 08:32:08;;;;;;;18.27;11.25;;;;;;;;;;5013428;28;20063;-71
2021/12/18 08:34:34;;;;;;;19.55;11.07;;;;;;;;;;5031103;28;20100;-73
2021/12/18 08:36:59;;;;;;;19.48;12.05;;;;;;;;;;5014237;28;20029;-72
2021/12/18 08:39:24;;;;;;;18.02;11.10;;;;;;;;;;5028478;28;20038;-73
2021/12/18 08:41:49;;;;;;;17.45;10.30;;;;;;;;;;5013770;28;20143;-72
2021/12/18 08:44:15;;;;;;;17.27;10.82;;;;;;;;;;5013509;28;20536;-71
2021/12/18 08:46:40;;;;;;;15.48;10.40;;;;;;;;;;4997314;28;20048;-71
2021/12/18 08:49:05;;;;;;;15.93;9.63;;;;;;;;;;5029660;28;20433;-72
2021/12/18 08:51:31;;;;;;;15.07;10.18;;;;;;;;;;5031623;28;20025;-74
2021/12/18 08:53:56;;;;;;;16.08;10.02;;;;;;;;;;5031482;28;20030;-73
2021/12/18 08:56:22;;;;;;;15.63;9.65;;;;;;;;;;5040277;28;20065;-73
2021/12/18 08:58:47;;;;;;;15.02;9.73;;;;;;;;;;5051131;28;20024;-72
2021/12/18 09:01:12;;;;;;;17.40;10.80;;;;;;;;;;5051488;28;20112;-71
2021/12/18 09:03:38;;;;;;;17.00;10.07;;;;;;;;;;5032921;28;20021;-73
2021/12/18 09:06:03;;;;;;;14.07;9.20;;;;;;;;;;5053602;28;20072;-71
2021/12/18 09:08:28;;;;;;;13.82;8.13;;;;;;;;;;5008764;28;20033;-70
2021/12/18 09:10:53;;;;;;;15.52;8.70;;;;;;;;;;5034491;28;20025;-73
2021/12/18 09:13:19;;;;;;;14.60;8.73;;;;;;;;;;5016923;28;20029;-73
2021/12/18 09:15:44;;;;;;;13.10;8.23;;;;;;;;;;5017437;28;20481;-71
2021/12/18 09:18:09;;;;;;;11.63;7.45;;;;;;;;;;5000189;28;20086;-71
2021/12/18 09:20:34;;;;;;;13.77;8.40;;;;;;;;;;5017082;28;20266;-71
2021/12/18 09:23:01;;;;;;;11.65;8.23;;;;;;;;;;5035043;28;20029;-73
2021/12/18 09:25:26;;;;;;;10.07;6.75;;;;;;;;;;5034803;28;20026;-70
2021/12/18 09:27:52;;;;;;;11.25;7.72;;;;;;;;;;5024157;28;20048;-72
2021/12/18 09:30:17;;;;;;;11.07;7.15;;;;;;;;;;5034614;28;20029;-72
2021/12/18 09:32:42;;;;;;;10.25;7.80;;;;;;;;;;5034183;28;20064;-72
2021/12/18 09:35:08;;;;;;;11.27;7.85;;;;;;;;;;5016181;28;20105;-74
2021/12/18 09:37:34;;;;;;;10.68;8.13;;;;;;;;;;5033161;28;20482;-73
2021/12/18 09:39:59;;;;;;;13.77;8.23;;;;;;;;;;5035407;28;20029;-74
2021/12/18 09:42:24;;;;;;;11.65;8.02;;;;;;;;;;5033565;28;20032;-73
2021/12/18 09:44:50;;;;;;;10.98;8.18;;;;;;;;;;5023142;28;20021;-72
2021/12/18 09:47:15;;;;;;;9.85;7.22;;;;;;;;;;5017155;28;20025;-73
2021/12/18 09:49:41;;;;;;;12.70;8.27;;;;;;;;;;5034342;28;20473;-72
2021/12/18 09:52:06;;;;;;;11.05;7.93;;;;;;;;;;5034281;28;20515;-72
2021/12/18 09:54:32;;;;;;;10.50;7.85;;;;;;;;;;5034441;28;20507;-74
2021/12/18 09:56:57;;;;;;;8.13;5.38;;;;;;;;;;5034149;28;20029;-74
2021/12/18 09:59:22;;;;;;;9.18;6.80;;;;;;;;;;5034408;28;20116;-73
2021/12/18 10:01:48;;;;;;;9.43;6.28;;;;;;;;;;5032565;28;20056;-71
2021/12/18 10:04:30;;;;;;;8.85;6.63;;;;;;;;;;5034111;28;20029;-70
2021/12/18 10:06:58;;;;;;;8.90;6.85;;;;;;;;;;5033543;28;20029;-70
2021/12/18 10:09:23;;;;;;;10.85;6.53;;;;;;;;;;5016096;28;20060;-71
2021/12/18 10:11:51;;;;;;;8.94;7.06;;;;;;;;;;5041864;28;20057;-71
2021/12/18 10:14:19;;;;;;;8.57;6.65;;;;;;;;;;5048877;28;20021;-72
2021/12/18 10:16:47;;;;;;;8.45;6.32;;;;;;;;;;5036160;28;20025;-72
2021/12/18 10:19:32;;;;;;;7.43;5.82;;;;;;;;;;5016588;28;20037;-71
2021/12/18 10:21:59;;;;;;;6.57;4.45;;;;;;;;;;5015911;28;20025;-72
2021/12/18 10:24:25;;;;;;;5.38;4.35;;;;;;;;;;5033569;28;20041;-71
2021/12/18 10:26:50;;;;;;;4.05;3.33;;;;;;;;;;5046654;28;20029;-72
2021/12/18 10:29:48;;;;;;;3.15;2.78;;;;;;;;;;5041471;28;20041;-72
2021/12/18 10:32:14;;;;;;;3.13;2.15;;;;;;;;;;4935882;29;20070;-71
2021/12/18 10:34:41;;;;;;;2.58;1.67;;;;;;;;;;4952579;29;20042;-72
2021/12/18 10:37:08;;;;;;;2.30;1.77;;;;;;;;;;4952264;29;20103;-72
2021/12/18 10:39:33;;;;;;;2.30;1.70;;;;;;;;;;4954377;28;20055;-72
2021/12/18 10:42:13;;;;;;;1.40;1.00;;;;;;;;;;4961240;28;20047;-72
2021/12/18 10:44:53;;;;;;;2.03;0.80;;;;;;;;;;4956501;28;20546;-72
2021/12/18 10:47:19;;;;;;;2.17;0.98;;;;;;;;;;4935591;29;20162;-72
2021/12/18 10:49:44;;;;;;;1.83;1.42;;;;;;;;;;4952718;29;20105;-71
2021/12/18 10:52:09;;;;;;;1.35;1.20;;;;;;;;;;4952349;29;20511;-72
2021/12/18 10:54:35;;;;;;;1.23;1.10;;;;;;;;;;4936887;29;20047;-72
2021/12/18 10:57:00;;;;;;;1.70;1.60;;;;;;;;;;4947659;29;20027;-72
2021/12/18 10:59:25;;;;;;;3.75;2.70;;;;;;;;;;4953144;29;20035;-74
2021/12/18 11:01:52;;;;;;;6.05;3.00;;;;;;;;;;4951810;29;20497;-72
2021/12/18 11:04:23;;;;;;;4.13;2.97;;;;;;;;;;4951712;29;20031;-69
2021/12/18 11:06:49;;;;;;;3.85;3.45;;;;;;;;;;4960034;28;20023;-68
2021/12/18 11:09:17;;;;;;;4.68;3.38;;;;;;;;;;5034046;28;20025;-70
2021/12/18 11:14:21;;;;;;;4.78;3.35;;;;;;;;;;5033278;28;20037;-70
2021/12/18 11:16:48;;;;;;;5.13;3.35;;;;;;;;;;5032545;28;20052;-70
2021/12/18 11:19:14;;;;;;;3.45;2.95;;;;;;;;;;5032165;28;20060;-69
2021/12/18 11:21:41;;;;;;;6.50;3.53;;;;;;;;;;5032813;28;20057;-70
2021/12/18 11:24:07;;;;;;;2.42;2.22;;;;;;;;;;5032419;28;20045;-70
2021/12/18 11:26:49;;;;;;;2.25;1.70;;;;;;;;;;5019405;28;20068;-69
2021/12/18 11:29:19;;;;;;;2.17;1.77;;;;;;;;;;5012800;28;20032;-71
2021/12/18 11:31:45;;;;;;;2.30;1.67;;;;;;;;;;5031420;28;20029;-70
2021/12/18 11:34:10;;;;;;;1.80;1.52;;;;;;;;;;5032600;28;20378;-71
2021/12/18 11:36:38;;;;;;;1.92;1.48;;;;;;;;;;5032733;28;20022;-69
2021/12/18 11:39:03;;;;;;;2.38;1.60;;;;;;;;;;5007697;28;20050;-70
2021/12/18 11:41:29;;;;;;;2.03;1.23;;;;;;;;;;5012535;28;20026;-71
2021/12/18 11:43:54;;;;;;;2.45;1.60;;;;;;;;;;5012358;28;20378;-69
2021/12/18 11:46:26;;;;;;;1.33;1.05;;;;;;;;;;5011492;28;20026;-70
2021/12/18 11:48:53;;;;;;;1.20;1.05;;;;;;;;;;5011148;28;20013;-70
2021/12/18 11:51:18;;;;;;;1.25;1.00;;;;;;;;;;5012346;28;20113;-70
2021/12/18 11:53:43;;;;;;;2.00;1.00;;;;;;;;;;4994479;28;20484;-69
2021/12/18 11:56:08;;;;;;;2.28;1.02;;;;;;;;;;4991639;28;20034;-71
2021/12/18 11:58:40;;;;;;;2.03;1.02;;;;;;;;;;5011032;28;20033;-70
2021/12/18 12:01:11;;;;;;;1.35;0.80;;;;;;;;;;5012229;28;20066;-70
2021/12/18 12:03:44;;;;;;;1.88;0.93;;;;;;;;;;4999288;28;20455;-69
2021/12/18 12:06:20;;;;;;;1.85;0.88;;;;;;;;;;5011483;28;20423;-70
2021/12/18 12:08:45;;;;;;;;;;;;;;;;;;5008240;28;20048;-69
2021/12/18 12:11:16;;;;;;;2.63;1.00;;;;;;;;;;5011676;28;20425;-69
2021/12/18 12:13:56;;;;;;;0.70;0.70;;;;;;;;;;5011660;28;20446;-70
2021/12/18 12:16:42;;;;;;;1.23;0.90;;;;;;;;;;5011865;28;20036;-70
2021/12/18 12:19:07;;;;;;;2.00;0.95;;;;;;;;;;4971020;28;20101;-70
2021/12/18 12:21:39;;;;;;;1.38;1.20;;;;;;;;;;4998414;28;20474;-70
2021/12/18 12:24:05;;;;;;;1.48;0.98;;;;;;;;;;5012297;28;20101;-69
2021/12/18 12:26:30;;;;;;;1.40;1.17;;;;;;;;;;5015333;28;20104;-69
2021/12/18 12:28:55;;;;;;;2.03;1.23;;;;;;;;;;5011563;28;20390;-68
2021/12/18 12:31:20;;;;;;;3.40;1.40;;;;;;;;;;5011478;28;20092;-70
2021/12/18 12:33:49;;;;;;;1.85;1.42;;;;;;;;;;5011341;28;20022;-68
2021/12/18 12:36:22;;;;;;;1.15;0.98;;;;;;;;;;5010189;28;20029;-68
2021/12/18 12:38:58;;;;;;;1.33;0.95;;;;;;;;;;5021205;28;20067;-70
2021/12/18 12:41:32;;;;;;;1.38;1.17;;;;;;;;;;5039321;28;20029;-70
2021/12/18 12:44:32;;;;;;;1.40;1.30;;;;;;;;;;5043857;28;20476;-68
2021/12/18 12:47:17;;;;;;;1.60;1.20;;;;;;;;;;5038952;28;20021;-71
2021/12/18 12:49:44;;;;;;;1.85;1.50;;;;;;;;;;5037044;28;20024;-70
2021/12/18 12:52:11;;;;;;;1.48;1.23;;;;;;;;;;5030564;28;20033;-69
2021/12/18 12:54:45;;;;;;;2.42;1.88;;;;;;;;;;5031371;28;20068;-69
2021/12/18 12:57:22;;;;;;;3.10;2.10;;;;;;;;;;5013125;28;20498;-71
2021/12/18 13:00:16;;;;;;;2.38;2.00;;;;;;;;;;5031331;28;20031;-69
2021/12/18 13:02:50;;;;;;;2.17;1.70;;;;;;;;;;5030357;28;20029;-70
2021/12/18 13:05:16;;;;;;;2.55;1.60;;;;;;;;;;5013568;28;20032;-69
2021/12/18 13:07:53;;;;;;;1.55;1.02;;;;;;;;;;5030543;28;20048;-69
2021/12/18 13:10:25;;;;;;;1.55;1.27;;;;;;;;;;5018550;28;20047;-69
2021/12/18 13:13:02;;;;;;;1.45;1.10;;;;;;;;;;5030541;28;20025;-69
2021/12/18 13:15:28;;;;;;;1.55;1.08;;;;;;;;;;5030015;28;20072;-70
2021/12/18 13:18:06;;;;;;;1.95;0.98;;;;;;;;;;5030036;28;20033;-70
2021/12/18 13:20:40;;;;;;;2.25;1.88;;;;;;;;;;5029945;28;20033;-71
2021/12/18 13:23:06;;;;;;;2.43;1.70;;;;;;;;;;5015784;28;20034;-71
2021/12/18 13:25:31;;;;;;;2.70;2.10;;;;;;;;;;5028622;28;20116;-70
2021/12/18 13:28:04;;;;;;;3.08;2.08;;;;;;;;;;5017567;28;20112;-69
2021/12/18 13:30:29;;;;;;;2.65;1.77;;;;;;;;;;5031031;28;20032;-71
2021/12/18 13:32:56;;;;;;;3.08;2.63;;;;;;;;;;5030335;28;20029;-70
2021/12/18 13:35:22;;;;;;;3.17;2.17;;;;;;;;;;5030545;28;20029;-70
2021/12/18 13:37:53;;;;;;;4.50;2.70;;;;;;;;;;5030024;28;20033;-70
2021/12/18 13:40:18;;;;;;;4.85;3.20;;;;;;;;;;5035416;28;20052;-70
2021/12/18 13:42:44;;;;;;;3.97;3.00;;;;;;;;;;5010488;28;20060;-69
2021/12/18 13:45:09;;;;;;;5.35;3.25;;;;;;;;;;5023480;28;20121;-70
2021/12/18 13:47:47;;;;;;;3.95;3.55;;;;;;;;;;5037513;28;20055;-70
2021/12/18 13:50:14;;;;;;;4.88;3.53;;;;;;;;;;5038175;28;20025;-70
2021/12/18 13:52:45;;;;;;;4.68;3.55;;;;;;;;;;5031874;28;20067;-68
2021/12/18 13:55:28;;;;;;;4.35;3.50;;;;;;;;;;5017160;28;20036;-70
2021/12/18 13:58:16;;;;;;;5.15;3.08;;;;;;;;;;5026913;28;20026;-70
2021/12/18 14:00:51;;;;;;;4.32;3.42;;;;;;;;;;5006225;28;20100;-71
2021/12/18 14:03:17;;;;;;;5.13;3.70;;;;;;;;;;5033174;28;20044;-69
2021/12/18 14:05:42;;;;;;;5.25;3.97;;;;;;;;;;5034663;28;20086;-70
2021/12/18 14:08:07;;;;;;;5.45;4.55;;;;;;;;;;5014109;28;20490;-70
2021/12/18 14:10:33;;;;;;;5.18;4.20;;;;;;;;;;5037130;28;20025;-70
2021/12/18 14:12:59;;;;;;;6.13;3.83;;;;;;;;;;5042948;28;20028;-70
2021/12/18 14:15:24;;;;;;;5.63;3.35;;;;;;;;;;5033240;28;20029;-70
2021/12/18 14:17:49;;;;;;;5.43;3.83;;;;;;;;;;5033296;28;20456;-71
2021/12/18 14:20:14;;;;;;;5.65;4.30;;;;;;;;;;4983450;28;20099;-71
2021/12/18 14:22:40;;;;;;;4.57;3.65;;;;;;;;;;5007109;28;20112;-69
2021/12/18 14:25:11;;;;;;;6.68;5.03;;;;;;;;;;5034121;28;20378;-69
2021/12/18 14:27:45;;;;;;;5.63;4.75;;;;;;;;;;5042514;28;20009;-69
2021/12/18 14:30:15;;;;;;;4.93;4.43;;;;;;;;;;5033881;28;20017;-69
2021/12/18 14:32:40;;;;;;;5.40;4.35;;;;;;;;;;5028156;28;20049;-71
2021/12/18 14:35:06;;;;;;;6.78;4.88;;;;;;;;;;5033088;28;20060;-71
2021/12/18 14:37:32;;;;;;;9.50;5.75;;;;;;;;;;5014809;28;20028;-71
2021/12/18 14:39:57;;;;;;;7.40;4.60;;;;;;;;;;5009081;28;20030;-70
2021/12/18 14:42:34;;;;;;;8.63;5.80;;;;;;;;;;5024476;28;20029;-71
2021/12/18 14:45:07;;;;;;;4.95;4.05;;;;;;;;;;5013699;28;20021;-71
2021/12/18 14:47:34;;;;;;;6.78;4.90;;;;;;;;;;5011684;28;20355;-71
2021/12/18 14:50:05;;;;;;;7.70;5.85;;;;;;;;;;5021909;28;20389;-70
2021/12/18 14:52:30;;;;;;;7.50;5.85;;;;;;;;;;5033223;28;20065;-70
2021/12/18 14:54:57;;;;;;;6.70;5.55;;;;;;;;;;5015627;28;20071;-70
2021/12/18 14:57:24;;;;;;;7.15;5.63;;;;;;;;;;5033231;28;20033;-70
2021/12/18 15:00:09;;;;;;;7.43;5.65;;;;;;;;;;5015394;28;20049;-70
2021/12/18 15:02:51;;;;;;;6.80;5.07;;;;;;;;;;5031915;28;20490;-68
2021/12/18 15:05:16;;;;;;;7.82;5.55;;;;;;;;;;5032636;28;20056;-69
2021/12/18 15:07:41;;;;;;;7.60;5.88;;;;;;;;;;5015337;28;20030;-69
2021/12/18 15:10:06;;;;;;;12.45;6.18;;;;;;;;;;5017399;28;20029;-69